createdAt,value
2023-02-21T06:01:28.075Z,9.99
2023-02-21T06:09:39.142Z,9.92
2023-02-21T06:14:11.067Z,9.94
2023-02-21T06:18:33.014Z,9.85
2023-02-21T06:26:56.720Z,9.83
2023-02-21T06:30:24.879Z,9.82
2023-02-21T06:43:16.112Z,9.77
2023-02-21T06:52:32.576Z,9.83
2023-02-21T06:55:35.825Z,9.87
2023-02-21T06:58:40.747Z,10.42
2023-02-21T07:42:41.932Z,10.18
2023-02-21T07:49:34.906Z,10.19
2023-02-21T07:54:38.537Z,10.20
2023-02-21T08:01:00.855Z,10.16
2023-02-21T08:10:10.229Z,10.22
2023-02-21T08:14:53.067Z,10.30
2023-02-21T08:38:46.526Z,10.55
2023-02-21T08:47:59.060Z,10.62
2023-02-21T09:00:18.757Z,10.68
2023-02-21T09:09:32.517Z,10.72
2023-02-21T09:14:40.557Z,10.67
2023-02-21T09:21:04.226Z,10.62
2023-02-21T09:24:24.613Z,10.63
2023-02-21T09:30:43.171Z,10.52
2023-02-21T09:35:36.676Z,10.54
2023-02-21T09:48:16.948Z,10.56
2023-02-21T09:57:54.497Z,10.59
2023-02-21T10:02:14.889Z,10.62
2023-02-21T10:13:28.940Z,10.71
2023-02-21T10:18:28.736Z,10.73
2023-02-21T10:22:53.766Z,10.73
2023-02-21T10:31:32.453Z,10.71
2023-02-21T10:36:40.048Z,10.65
2023-02-21T10:39:32.292Z,10.66
2023-02-21T10:45:16.156Z,10.61
2023-02-21T10:50:04.349Z,10.65
2023-02-21T10:54:25.754Z,10.61
2023-02-21T10:59:19.704Z,10.67
2023-02-21T11:11:06.125Z,10.78
2023-02-21T11:16:54.067Z,10.81
2023-02-21T11:21:43.452Z,10.84
2023-02-21T11:26:57.490Z,10.81
2023-02-21T11:44:24.018Z,10.90
2023-02-21T11:49:12.695Z,10.95
2023-02-21T11:53:37.927Z,10.99
2023-02-21T11:58:54.961Z,11.03
2023-02-21T12:02:10.411Z,11.08
2023-02-21T12:05:06.744Z,11.13
2023-02-21T12:18:28.050Z,11.82
2023-02-21T12:21:54.312Z,11.25
2023-02-21T12:30:16.188Z,11.87
2023-02-21T12:33:20.723Z,11.32
2023-02-21T12:36:26.977Z,11.32
2023-02-21T12:40:17.853Z,11.32
2023-02-21T12:46:20.635Z,11.38
2023-02-21T12:51:18.751Z,11.44
2023-02-21T12:55:27.191Z,11.57
2023-02-21T13:03:36.708Z,11.70
2023-02-21T13:06:39.854Z,11.81
2023-02-21T13:13:05.867Z,11.98
2023-02-21T13:17:16.373Z,12.00
2023-02-21T13:21:26.034Z,12.04
2023-02-21T13:25:36.973Z,12.11
2023-02-21T13:31:14.342Z,12.24
2023-02-21T13:38:00.643Z,12.54
2023-02-21T13:43:17.240Z,12.63
2023-02-21T13:49:24.808Z,12.75
2023-02-21T13:55:53.787Z,12.81
2023-02-21T14:00:13.412Z,12.91
2023-02-21T14:06:40.455Z,12.96
2023-02-21T14:11:42.784Z,12.92
2023-02-21T14:14:51.973Z,13.56
2023-02-21T14:21:57.169Z,12.97
2023-02-21T14:25:12.623Z,12.97
2023-02-21T14:28:16.242Z,12.98
2023-02-21T14:32:18.105Z,12.93
2023-02-21T14:37:19.885Z,12.99
2023-02-21T14:45:59.775Z,13.00
2023-02-21T14:50:00.373Z,13.00
2023-02-21T15:02:36.639Z,12.92
2023-02-21T21:37:27.597Z,10.76
